createdAt,value
2022-11-04T00:00:08.234Z,25.27
2022-11-04T00:02:35.607Z,25.23
2022-11-04T00:05:03.159Z,23.25
2022-11-04T00:07:49.219Z,25.27
2022-11-04T00:10:16.615Z,21.55
2022-11-04T00:12:43.868Z,16.85
2022-11-04T00:15:29.611Z,12.00
2022-11-04T00:17:58.564Z,13.13
2022-11-04T00:20:55.057Z,13.52
2022-11-04T00:23:40.990Z,14.80
2022-11-04T00:26:28.126Z,13.32
2022-11-04T00:28:55.768Z,12.15
2022-11-04T00:31:41.793Z,10.40
2022-11-04T00:34:09.015Z,11.35
2022-11-04T00:36:36.309Z,9.25
2022-11-04T00:39:03.684Z,9.43
2022-11-04T00:41:31.030Z,10.05
2022-11-04T00:44:03.470Z,11.15
2022-11-04T00:46:32.801Z,10.83
2022-11-04T00:49:00.418Z,10.88
2022-11-04T00:51:27.983Z,9.05
2022-11-04T00:53:55.818Z,13.13
2022-11-04T00:56:23.116Z,9.60
2022-11-04T00:58:50.515Z,9.15
2022-11-04T01:01:19.334Z,11.57
2022-11-04T01:03:48.854Z,8.75
2022-11-04T01:06:17.076Z,10.20
2022-11-04T01:08:44.451Z,8.52
2022-11-04T01:11:12.272Z,9.10
2022-11-04T01:13:40.092Z,8.50
2022-11-04T01:16:09.884Z,9.20
2022-11-04T01:18:38.040Z,8.82
2022-11-04T01:21:08.175Z,7.25
2022-11-04T01:23:35.877Z,8.38
2022-11-04T01:26:07.923Z,9.85
2022-11-04T01:28:35.612Z,12.85
2022-11-04T01:31:10.866Z,9.27
2022-11-04T01:33:39.234Z,8.70
2022-11-04T01:36:08.148Z,10.60
2022-11-04T01:38:35.752Z,11.95
2022-11-04T01:41:04.120Z,9.07
2022-11-04T01:43:53.031Z,8.18
2022-11-04T01:46:33.082Z,8.20
2022-11-04T01:49:11.772Z,10.88
2022-11-04T01:51:42.284Z,8.55
2022-11-04T01:54:11.272Z,9.05
2022-11-04T01:56:41.162Z,10.27
2022-11-04T01:59:14.152Z,12.20
2022-11-04T02:01:42.545Z,9.55
2022-11-04T02:04:25.734Z,12.82
2022-11-04T02:06:56.737Z,10.45
2022-11-04T02:09:26.861Z,12.80
2022-11-04T02:12:12.862Z,10.40
2022-11-04T02:14:41.300Z,14.07
2022-11-04T02:17:38.080Z,14.55
2022-11-04T02:20:14.499Z,13.57
2022-11-04T02:22:59.981Z,15.43
2022-11-04T02:26:06.419Z,12.02
2022-11-04T02:29:05.260Z,11.90
2022-11-04T02:31:49.919Z,13.20
2022-11-04T02:34:43.489Z,12.88
2022-11-04T02:37:33.573Z,12.63
2022-11-04T02:40:22.992Z,14.15
2022-11-04T02:43:11.762Z,12.45
2022-11-04T02:45:45.503Z,15.07
2022-11-04T02:48:20.327Z,11.52
2022-11-04T02:50:47.567Z,23.65
2022-11-04T02:53:27.147Z,9.43
2022-11-04T02:55:57.904Z,12.77
2022-11-04T02:58:34.473Z,12.55
2022-11-04T03:01:03.655Z,10.75
2022-11-04T03:03:44.126Z,13.57
2022-11-04T03:06:15.071Z,10.82
2022-11-04T03:08:48.489Z,9.73
2022-11-04T03:11:21.092Z,13.73
2022-11-04T03:13:57.815Z,10.25
2022-11-04T03:16:35.791Z,13.02
2022-11-04T03:19:14.039Z,11.18
2022-11-04T03:21:52.022Z,13.75
2022-11-04T03:24:19.400Z,14.77
2022-11-04T03:26:55.500Z,12.13
2022-11-04T03:29:58.271Z,12.73
2022-11-04T03:33:04.335Z,14.02
2022-11-04T03:35:32.544Z,9.60
2022-11-04T03:37:59.945Z,11.30
2022-11-04T03:40:27.614Z,10.68
2022-11-04T03:42:59.993Z,10.77
2022-11-04T03:45:27.924Z,9.32
2022-11-04T03:47:56.740Z,9.48
2022-11-04T03:50:33.175Z,10.85
2022-11-04T03:53:00.739Z,11.50
2022-11-04T03:55:45.827Z,11.60
2022-11-04T03:58:43.606Z,11.77
2022-11-04T04:01:46.490Z,12.90
2022-11-04T04:04:39.907Z,15.52
2022-11-04T04:07:15.022Z,8.52
2022-11-04T04:10:31.522Z,11.13
2022-11-04T04:13:03.309Z,16.05
2022-11-04T04:15:44.808Z,9.55
2022-11-04T04:18:16.886Z,9.90
2022-11-04T04:20:47.839Z,10.93
2022-11-04T04:23:38.570Z,11.95
2022-11-04T04:26:27.755Z,16.67
2022-11-04T04:28:56.721Z,12.73
2022-11-04T04:31:44.262Z,15.30
2022-11-04T04:34:11.983Z,12.63
2022-11-04T04:36:48.093Z,13.13
2022-11-04T04:39:39.216Z,14.70
2022-11-04T04:42:26.529Z,12.02
2022-11-04T04:44:59.783Z,10.98
2022-11-04T04:49:59.264Z,10.63
2022-11-04T04:52:31.075Z,12.00
2022-11-04T04:54:58.504Z,16.42
2022-11-04T04:57:26.124Z,14.95
2022-11-04T04:59:53.467Z,15.50
2022-11-04T05:02:20.940Z,13.65
2022-11-04T05:04:48.473Z,15.05
2022-11-04T05:07:15.922Z,17.25
2022-11-04T05:09:43.306Z,15.45
2022-11-04T05:12:10.660Z,15.43
2022-11-04T05:14:38.044Z,15.13
2022-11-04T05:17:05.447Z,14.77
2022-11-04T05:19:32.754Z,15.38
2022-11-04T05:22:00.087Z,20.73
2022-11-04T05:24:27.560Z,13.27
2022-11-04T05:26:54.908Z,17.30
2022-11-04T05:29:22.495Z,27.48
2022-11-04T05:31:49.922Z,24.50
2022-11-04T05:34:17.313Z,14.63
2022-11-04T05:36:44.691Z,14.98
2022-11-04T05:39:14.082Z,16.75
2022-11-04T05:41:41.558Z,12.55
2022-11-04T05:44:10.725Z,11.43
2022-11-04T05:46:38.033Z,21.08
2022-11-04T05:49:05.655Z,14.13
2022-11-04T05:51:33.237Z,14.95
2022-11-04T05:54:01.717Z,14.32
2022-11-04T05:56:29.158Z,12.50
2022-11-04T05:58:56.842Z,13.68
2022-11-04T06:01:36.383Z,14.52
2022-11-04T06:04:05.663Z,15.30
2022-11-04T06:06:35.236Z,15.00
2022-11-04T06:09:03.359Z,16.20
2022-11-04T06:11:31.477Z,15.82
2022-11-04T06:13:59.292Z,14.57
2022-11-04T06:16:26.781Z,13.13
2022-11-04T06:18:54.424Z,16.75
2022-11-04T06:21:22.432Z,14.10
2022-11-04T06:23:49.816Z,15.95
2022-11-04T06:26:18.311Z,15.90
2022-11-04T06:28:46.181Z,15.60
2022-11-04T06:31:14.645Z,17.83
2022-11-04T06:33:42.420Z,20.85
2022-11-04T06:36:12.666Z,18.33
2022-11-04T06:38:40.729Z,17.20
2022-11-04T06:41:12.167Z,14.63
2022-11-04T06:43:39.928Z,17.90
2022-11-04T06:46:23.361Z,22.05
2022-11-04T06:48:50.655Z,20.60
2022-11-04T06:51:18.264Z,13.13
2022-11-04T06:53:45.617Z,11.65
2022-11-04T06:56:12.957Z,12.65
2022-11-04T06:58:40.228Z,15.48
2022-11-04T07:01:13.715Z,13.13
2022-11-04T07:03:50.391Z,10.65
2022-11-04T07:06:18.404Z,8.50
2022-11-04T07:08:46.617Z,6.45
2022-11-04T07:11:14.285Z,3.90
2022-11-04T07:13:41.713Z,4.15
2022-11-04T07:16:10.039Z,5.40
2022-11-04T07:18:37.381Z,5.32
2022-11-04T07:21:09.703Z,1.92
2022-11-04T07:23:37.833Z,1.70
2022-11-04T07:26:07.603Z,1.67
2022-11-04T07:28:36.020Z,3.03
2022-11-04T07:31:04.786Z,1.30
2022-11-04T07:33:33.812Z,1.13
2022-11-04T07:36:06.132Z,2.53
2022-11-04T07:38:33.527Z,0.97
2022-11-04T07:41:02.455Z,2.05
2022-11-04T07:43:30.683Z,2.33
2022-11-04T07:46:11.196Z,1.90
2022-11-04T07:48:39.048Z,1.35
2022-11-04T07:51:09.023Z,0.60
2022-11-04T07:53:36.986Z,0.95
2022-11-04T07:56:11.695Z,2.13
2022-11-04T07:58:39.446Z,2.42
2022-11-04T08:01:09.451Z,1.55
2022-11-04T08:03:37.567Z,1.83
2022-11-04T08:06:07.571Z,1.98
2022-11-04T08:08:35.956Z,3.33
2022-11-04T08:11:14.218Z,1.50
2022-11-04T08:13:43.742Z,1.02
2022-11-04T08:16:17.233Z,1.65
2022-11-04T08:18:45.512Z,2.28
2022-11-04T08:21:13.434Z,0.73
2022-11-04T08:23:40.961Z,1.92
2022-11-04T08:26:10.290Z,0.85
2022-11-04T08:28:37.914Z,0.38
2022-11-04T08:31:11.748Z,0.82
2022-11-04T08:33:39.358Z,1.05
2022-11-04T08:36:28.086Z,0.50
2022-11-04T08:38:56.358Z,0.35
2022-11-04T08:41:28.055Z,0.10
2022-11-04T08:44:00.924Z,3.30
2022-11-04T08:46:31.515Z,0.55
2022-11-04T08:48:58.903Z,0.20
2022-11-04T08:51:28.041Z,0.10
2022-11-04T08:53:55.331Z,0.93
2022-11-04T08:56:24.414Z,0.70
2022-11-04T08:58:52.388Z,0.55
2022-11-04T09:01:21.327Z,0.77
2022-11-04T09:03:49.720Z,0.45
2022-11-04T09:06:23.459Z,0.85
2022-11-04T09:08:52.206Z,0.65
2022-11-04T09:11:19.572Z,1.23
2022-11-04T09:13:46.961Z,0.50
2022-11-04T09:16:15.876Z,0.40
2022-11-04T09:18:43.133Z,0.20
2022-11-04T09:21:11.278Z,0.20
2022-11-04T09:23:38.902Z,0.15
2022-11-04T09:26:12.909Z,0.52
2022-11-04T09:28:40.999Z,0.63
2022-11-04T09:31:19.076Z,0.20
2022-11-04T09:33:46.531Z,0.73
2022-11-04T09:36:14.306Z,0.50
2022-11-04T09:38:42.747Z,1.35
2022-11-04T09:41:28.675Z,0.40
2022-11-04T09:44:23.206Z,0.25
2022-11-04T09:46:54.750Z,0.15
2022-11-04T09:49:23.891Z,0.63
2022-11-04T09:51:54.871Z,0.40
2022-11-04T09:54:26.876Z,0.45
2022-11-04T09:56:57.457Z,0.32
2022-11-04T09:59:28.763Z,3.45
2022-11-04T10:02:07.774Z,0.68
2022-11-04T10:04:48.381Z,0.08
2022-11-04T10:07:28.026Z,1.42
2022-11-04T10:10:20.174Z,0.63
2022-11-04T10:13:02.083Z,0.90
2022-11-04T10:15:46.722Z,0.80
2022-11-04T10:18:22.740Z,0.20
2022-11-04T10:21:04.566Z,0.65
2022-11-04T10:23:44.321Z,0.65
2022-11-04T10:26:37.406Z,1.50
2022-11-04T10:29:09.371Z,0.10
2022-11-04T10:31:38.703Z,1.02
2022-11-04T10:34:22.780Z,0.30
2022-11-04T10:36:50.155Z,0.50
2022-11-04T10:39:27.953Z,5.25
2022-11-04T10:41:55.596Z,0.70
2022-11-04T10:44:24.972Z,0.68
2022-11-04T10:47:11.111Z,0.77
2022-11-04T10:52:50.875Z,1.10
2022-11-04T10:56:00.942Z,2.22
2022-11-04T10:58:32.639Z,1.33
2022-11-04T11:01:20.327Z,1.20
2022-11-04T11:03:47.769Z,0.93
2022-11-04T11:06:26.781Z,1.90
2022-11-04T11:09:53.837Z,0.50
2022-11-04T11:12:55.864Z,1.42
2022-11-04T11:15:30.121Z,1.25
2022-11-04T11:18:42.066Z,1.00
2022-11-04T11:22:05.289Z,0.75
2022-11-04T11:24:34.718Z,0.93
2022-11-04T11:27:12.324Z,3.33
2022-11-04T11:30:18.898Z,1.58
2022-11-04T11:33:27.822Z,1.25
2022-11-04T11:35:58.297Z,2.42
2022-11-04T11:38:28.697Z,17.02
2022-11-04T11:41:53.486Z,2.35
2022-11-04T11:44:38.653Z,1.65
2022-11-04T11:47:17.654Z,3.30
2022-11-04T11:50:37.114Z,0.52
2022-11-04T11:53:53.867Z,0.55
2022-11-04T11:57:06.871Z,0.10
2022-11-04T12:03:03.875Z,0.43
2022-11-04T12:12:08.171Z,0.88
2022-11-04T12:14:58.367Z,0.38
2022-11-04T12:17:48.859Z,0.40
2022-11-04T12:20:59.509Z,0.32
2022-11-04T12:24:16.096Z,0.40
2022-11-04T12:27:13.760Z,0.28
2022-11-04T12:30:12.707Z,0.85
2022-11-04T12:32:57.887Z,0.25
2022-11-04T12:35:35.861Z,0.32
2022-11-04T12:38:42.927Z,0.10
2022-11-04T12:41:52.771Z,0.50
2022-11-04T12:44:36.476Z,1.00
2022-11-04T12:47:38.838Z,0.03
2022-11-04T12:50:11.900Z,0.13
2022-11-04T12:52:58.041Z,0.15
2022-11-04T12:55:52.435Z,0.20
2022-11-04T12:58:39.092Z,0.30
2022-11-04T13:01:15.506Z,0.82
2022-11-04T13:03:57.247Z,1.67
2022-11-04T13:06:34.496Z,0.10
2022-11-04T13:09:13.571Z,0.55
2022-11-04T13:11:58.271Z,0.40
2022-11-04T13:14:29.903Z,0.38
2022-11-04T13:17:01.350Z,0.20
2022-11-04T13:19:35.238Z,0.50
2022-11-04T13:22:08.519Z,0.10
2022-11-04T13:24:40.205Z,0.40
2022-11-04T13:27:19.142Z,0.35
2022-11-04T13:29:48.082Z,3.65
2022-11-04T13:32:28.135Z,1.98
2022-11-04T13:35:22.000Z,0.90
2022-11-04T13:37:55.284Z,0.70
2022-11-04T13:40:34.183Z,1.48
2022-11-04T13:43:41.799Z,0.40
2022-11-04T13:46:09.054Z,0.00
2022-11-04T13:48:38.787Z,0.40
2022-11-04T13:51:09.384Z,0.40
2022-11-04T13:53:55.082Z,1.83
2022-11-04T13:56:42.693Z,0.85
2022-11-04T13:59:20.204Z,0.17
2022-11-04T14:01:47.947Z,0.45
2022-11-04T14:04:30.867Z,0.10
2022-11-04T14:07:01.848Z,1.35
2022-11-04T14:09:29.064Z,0.57
2022-11-04T14:12:11.522Z,2.05
2022-11-04T14:14:42.466Z,0.80
2022-11-04T14:17:34.400Z,0.13
2022-11-04T14:20:24.458Z,1.33
2022-11-04T14:22:55.450Z,0.55
2022-11-04T14:25:25.258Z,1.88
2022-11-04T14:28:16.835Z,1.13
2022-11-04T14:30:51.313Z,6.60
2022-11-04T14:34:09.490Z,0.77
2022-11-04T14:36:41.428Z,1.40
2022-11-04T14:39:11.482Z,0.22
2022-11-04T14:41:41.470Z,1.33
2022-11-04T14:44:18.528Z,1.38
2022-11-04T14:46:48.517Z,1.05
2022-11-04T14:49:39.760Z,0.35
2022-11-04T14:52:21.386Z,0.93
2022-11-04T14:54:52.883Z,2.10
2022-11-04T14:57:24.258Z,2.83
2022-11-04T14:59:53.161Z,1.55
2022-11-04T15:02:23.878Z,1.75
2022-11-04T15:05:02.037Z,1.08
2022-11-04T15:07:42.811Z,2.63
2022-11-04T15:10:27.862Z,1.00
2022-11-04T15:13:01.613Z,3.58
2022-11-04T15:15:39.253Z,0.63
2022-11-04T15:18:13.451Z,0.32
2022-11-04T15:20:52.916Z,2.30
2022-11-04T15:23:34.959Z,0.85
2022-11-04T15:26:03.444Z,0.40
2022-11-04T15:28:35.164Z,0.43
2022-11-04T15:31:17.666Z,2.42
2022-11-04T15:33:48.154Z,1.92
2022-11-04T15:36:19.922Z,3.22
2022-11-04T15:38:52.890Z,3.47
2022-11-04T15:41:41.099Z,1.60
2022-11-04T15:44:29.124Z,1.73
2022-11-04T15:46:58.925Z,1.30
2022-11-04T15:49:31.583Z,1.30
2022-11-04T15:52:06.816Z,1.70
2022-11-04T15:54:40.028Z,3.55
2022-11-04T15:59:49.411Z,0.55
2022-11-04T16:02:28.344Z,0.95
2022-11-04T16:05:12.342Z,1.05
2022-11-04T16:07:48.003Z,1.92
2022-11-04T16:10:30.463Z,0.40
2022-11-04T16:13:23.969Z,0.80
2022-11-04T16:15:57.021Z,0.70
2022-11-04T16:18:37.526Z,0.68
2022-11-04T16:21:21.127Z,3.03
2022-11-04T16:23:52.696Z,1.10
2022-11-04T16:26:26.415Z,0.35
2022-11-04T16:28:55.877Z,8.05
2022-11-04T16:31:26.312Z,0.93
2022-11-04T16:33:53.772Z,0.70
2022-11-04T16:36:24.096Z,0.90
2022-11-04T16:38:55.385Z,3.20
2022-11-04T16:41:25.313Z,1.67
2022-11-04T16:43:53.504Z,2.00
2022-11-04T16:46:22.099Z,4.75
2022-11-04T16:48:49.803Z,2.53
2022-11-04T16:51:23.069Z,3.95
2022-11-04T16:56:23.543Z,1.63
2022-11-04T16:58:51.727Z,2.20
2022-11-04T17:01:19.644Z,2.38
2022-11-04T17:03:47.088Z,3.60
2022-11-04T17:06:16.336Z,3.20
2022-11-04T17:08:43.918Z,1.80
2022-11-04T17:11:12.446Z,3.95
2022-11-04T17:13:40.016Z,3.80
2022-11-04T17:16:10.526Z,4.10
2022-11-04T17:18:37.850Z,4.03
2022-11-04T17:21:11.967Z,5.15
2022-11-04T17:23:39.360Z,5.72
2022-11-04T17:26:06.685Z,2.13
2022-11-04T17:28:33.935Z,3.92
2022-11-04T17:31:02.648Z,3.03
2022-11-04T17:33:29.932Z,3.95
2022-11-04T17:35:57.511Z,8.30
2022-11-04T17:38:24.770Z,10.50
2022-11-04T17:41:11.022Z,9.93
2022-11-04T17:43:56.998Z,5.55
2022-11-04T17:46:41.568Z,3.40
2022-11-04T17:49:13.000Z,2.85
2022-11-04T17:51:43.117Z,1.27
2022-11-04T17:54:10.848Z,1.48
2022-11-04T17:56:40.442Z,3.22
2022-11-04T17:59:08.815Z,3.78
2022-11-04T18:01:36.963Z,8.98
2022-11-04T18:04:04.471Z,8.43
2022-11-04T18:06:34.676Z,3.63
2022-11-04T18:09:03.389Z,3.72
2022-11-04T18:11:49.893Z,5.93
2022-11-04T18:14:18.133Z,4.38
2022-11-04T18:16:47.505Z,4.28
2022-11-04T18:19:16.943Z,4.53
2022-11-04T18:21:44.347Z,4.78
2022-11-04T18:24:12.418Z,6.22
2022-11-04T18:26:40.379Z,12.02
2022-11-04T18:29:08.071Z,7.53
2022-11-04T18:31:38.354Z,3.65
2022-11-04T18:34:09.345Z,4.13
2022-11-04T18:36:38.495Z,8.30
2022-11-04T18:39:08.564Z,5.50
2022-11-04T18:41:36.827Z,4.72
2022-11-04T18:44:04.576Z,13.48
2022-11-04T18:46:31.967Z,11.73
2022-11-04T18:48:59.429Z,4.50
2022-11-04T18:51:27.182Z,3.80
2022-11-04T18:53:54.740Z,4.40
2022-11-04T18:56:23.280Z,6.18
2022-11-04T18:58:50.830Z,9.98
2022-11-04T19:01:22.580Z,4.68
2022-11-04T19:03:50.783Z,4.97
2022-11-04T19:06:27.708Z,8.52
2022-11-04T19:09:13.383Z,6.18
2022-11-04T19:12:12.013Z,4.95
2022-11-04T19:14:40.033Z,4.82
2022-11-04T19:17:07.572Z,3.88
2022-11-04T19:19:35.007Z,4.28
2022-11-04T19:22:02.458Z,3.10
2022-11-04T19:24:29.830Z,4.13
2022-11-04T19:26:57.138Z,4.47
2022-11-04T19:29:24.479Z,4.00
2022-11-04T19:31:52.161Z,3.35
2022-11-04T19:34:19.518Z,4.07
2022-11-04T19:36:47.341Z,3.38
2022-11-04T19:39:14.809Z,9.13
2022-11-04T19:42:00.932Z,4.47
2022-11-04T19:44:28.514Z,4.80
2022-11-04T19:46:55.754Z,6.95
2022-11-04T19:49:23.066Z,6.97
2022-11-04T19:51:50.373Z,4.18
2022-11-04T19:54:18.745Z,5.22
2022-11-04T19:56:46.160Z,4.55
2022-11-04T19:59:13.525Z,3.15
2022-11-04T20:01:40.992Z,4.05
2022-11-04T20:04:09.450Z,6.75
2022-11-04T20:06:37.570Z,8.20
2022-11-04T20:09:07.247Z,9.18
2022-11-04T20:11:56.582Z,4.60
2022-11-04T20:14:25.143Z,6.45
2022-11-04T20:16:53.250Z,5.45
2022-11-04T20:19:22.822Z,3.92
2022-11-04T20:21:50.904Z,5.22
2022-11-04T20:24:18.296Z,5.88
2022-11-04T20:26:49.107Z,5.82
2022-11-04T20:29:16.861Z,10.52
2022-11-04T20:31:44.862Z,9.07
2022-11-04T20:34:13.676Z,11.45
2022-11-04T20:36:41.125Z,9.15
2022-11-04T20:39:13.837Z,7.55
2022-11-04T20:41:42.251Z,5.15
2022-11-04T20:44:15.051Z,7.40
2022-11-04T20:46:44.935Z,4.88
2022-11-04T20:49:14.264Z,5.25
2022-11-04T20:51:48.690Z,5.95
2022-11-04T20:54:18.116Z,8.25
2022-11-04T20:56:45.756Z,5.70
2022-11-04T20:59:13.901Z,8.23
2022-11-04T21:01:43.465Z,6.57
2022-11-04T21:04:18.794Z,11.90
2022-11-04T21:06:48.495Z,12.35
2022-11-04T21:09:17.821Z,11.35
2022-11-04T21:11:45.094Z,7.05
2022-11-04T21:14:15.887Z,6.78
2022-11-04T21:16:43.841Z,6.53
2022-11-04T21:19:15.852Z,7.95
2022-11-04T21:21:44.257Z,6.57
2022-11-04T21:24:13.735Z,7.78
2022-11-04T21:26:42.235Z,6.00
2022-11-04T21:29:12.229Z,10.10
2022-11-04T21:31:39.749Z,22.33
2022-11-04T21:34:07.538Z,6.70
2022-11-04T21:36:35.003Z,8.02
2022-11-04T21:39:02.609Z,5.03
2022-11-04T21:41:37.225Z,12.18
2022-11-04T21:44:08.241Z,10.55
2022-11-04T21:46:36.222Z,6.80
2022-11-04T21:49:03.964Z,10.63
2022-11-04T21:51:33.181Z,6.13
2022-11-04T21:54:00.924Z,10.13
2022-11-04T21:56:33.075Z,10.15
2022-11-04T21:59:01.157Z,6.93
2022-11-04T22:01:30.524Z,9.40
2022-11-04T22:04:00.114Z,9.60
2022-11-04T22:06:34.152Z,5.43
2022-11-04T22:09:05.608Z,10.02
2022-11-04T22:11:36.817Z,8.50
2022-11-04T22:14:06.338Z,10.10
2022-11-04T22:16:36.040Z,14.23
2022-11-04T22:19:05.254Z,6.88
2022-11-04T22:21:33.374Z,8.45
2022-11-04T22:24:00.853Z,4.35
2022-11-04T22:26:30.682Z,8.07
2022-11-04T22:28:59.017Z,9.45
2022-11-04T22:31:31.914Z,7.53
2022-11-04T22:34:00.737Z,7.88
2022-11-04T22:36:29.803Z,7.18
2022-11-04T22:38:57.678Z,6.70
2022-11-04T22:41:27.694Z,7.40
2022-11-04T22:43:56.386Z,8.88
2022-11-04T22:46:28.663Z,24.35
2022-11-04T22:48:56.259Z,10.35
2022-11-04T22:51:23.659Z,10.88
2022-11-04T22:53:58.959Z,7.13
2022-11-04T22:56:28.981Z,19.38
2022-11-04T22:58:56.427Z,17.20
2022-11-04T23:01:26.038Z,11.90
2022-11-04T23:03:53.776Z,10.70
2022-11-04T23:06:21.135Z,9.75
2022-11-04T23:08:48.585Z,9.95
2022-11-04T23:11:38.171Z,12.50
2022-11-04T23:14:24.237Z,7.85
2022-11-04T23:17:10.640Z,10.90
2022-11-04T23:19:38.964Z,9.20
2022-11-04T23:22:26.320Z,7.65
2022-11-04T23:25:06.945Z,10.00
2022-11-04T23:28:02.363Z,8.80
2022-11-04T23:30:34.604Z,9.68
2022-11-04T23:33:07.178Z,9.48
2022-11-04T23:35:56.492Z,9.68
2022-11-04T23:38:24.501Z,8.15
2022-11-04T23:41:13.797Z,7.13
2022-11-04T23:43:41.140Z,7.68
2022-11-04T23:46:27.522Z,7.47
2022-11-04T23:49:13.616Z,7.97
2022-11-04T23:51:59.901Z,7.18
2022-11-04T23:54:45.825Z,8.05
2022-11-04T23:57:33.668Z,7.13
